Los Banos, California
Current Conditions -  °F | °C
As of 4:53 AM on Saturday 25 Oct 2014 (Local Time) from KMCE Reporting Station
Clear Clear  
Wind Chill: 60°   Ceiling: Unl
Heat Index: 60°   Visibility: 10mi
Dew Point: 50°   Wind: 3mph
Humidity: 69%   Direction: 10°N
Pressure: 29.95"   Gusts: NA
Location:  37.06°N, 120.84°W
Report Text: KMCE 251153Z AUTO 01003KT 10SM CLR 16/10 A2995 RMK AO2 SLP142 T01560100 10172 20139 53002
Loading
Personal Weather Stations






























Interactive Weather Map
Tropical Storm Tracking
New forecast layout! Learn more

10-Day Weather Forecast

Advertisements
Track Severe Weather on mobile